Time;durP1;ratioP1;P1;durP2;ratioP2;P2;SDS_P1;SDS_P2;PMS_P1;PMS_P2;Temp;Humidity;BMP_temperature;BMP_pressure;BME280_temperature;BME280_humidity;BME280_pressure;Samples;Min_cycle;Max_cycle;Signal;HPM_P1;HPM_P2
2021/04/28 00:02:24;;;;;;;7.72;2.70;;;7.90;54.40;;;;;;6151960;23;20010;-82
2021/04/28 00:05:02;;;;;;;8.13;3.20;;;7.90;54.80;;;;;;6164561;23;20001;-83
2021/04/28 00:07:48;;;;;;;7.90;3.25;;;7.80;55.00;;;;;;6187638;23;19997;-84
2021/04/28 00:10:24;;;;;;;5.38;3.25;;;7.80;55.10;;;;;;6163210;23;20001;-82
2021/04/28 00:15:58;;;;;;;10.38;3.72;;;7.80;55.20;;;;;;6138605;23;20066;-83
2021/04/28 01:21:36;;;;;;;7.38;3.03;;;6.70;59.00;;;;;;6112660;23;20021;31
2021/04/28 01:41:09;;;;;;;8.75;3.63;;;6.30;60.40;;;;;;6118649;23;20017;-83
2021/04/28 02:42:12;;;;;;;8.65;3.88;;;5.40;65.10;;;;;;6141737;23;20712;-81
2021/04/28 02:44:49;;;;;;;6.93;3.50;;;5.30;65.40;;;;;;6111336;23;20264;-82
2021/04/28 02:53:35;;;;;;;7.30;3.92;;;5.20;66.40;;;;;;6195298;23;20090;-82
2021/04/28 02:59:17;;;;;;;8.82;3.55;;;5.10;66.70;;;;;;6165598;23;20009;-84
2021/04/28 03:08:06;;;;;;;6.78;3.40;;;5.10;67.50;;;;;;6156897;23;20047;-84
2021/04/28 03:10:39;;;;;;;12.15;3.85;;;5.10;67.90;;;;;;6131921;23;20037;-84
2021/04/28 03:13:09;;;;;;;8.30;4.25;;;5.00;68.00;;;;;;6132853;23;20006;-84
2021/04/28 03:18:48;;;;;;;8.45;3.53;;;5.00;68.30;;;;;;6128050;23;20107;-83
2021/04/28 03:21:31;;;;;;;6.07;3.53;;;5.00;68.50;;;;;;6121625;23;20025;31
2021/04/28 03:24:07;;;;;;;13.32;4.45;;;5.10;68.50;;;;;;6138846;23;19997;-85
2021/04/28 03:29:45;;;;;;;20.23;8.27;;;5.00;69.10;;;;;;6170491;23;20009;-85
2021/04/28 03:32:25;;;;;;;9.52;3.70;;;5.00;69.00;;;;;;6191874;23;20008;-84
2021/04/28 03:38:12;;;;;;;8.70;3.50;;;4.90;69.90;;;;;;6245211;22;20057;-85
2021/04/28 03:41:03;;;;;;;8.30;4.07;;;4.90;69.80;;;;;;6196900;23;20001;-85
2021/04/28 03:43:45;;;;;;;6.50;3.33;;;5.00;70.10;;;;;;6222771;23;20007;-85
2021/04/28 03:46:56;;;;;;;10.80;3.60;;;5.00;69.90;;;;;;6181553;23;20008;31
2021/04/28 03:57:51;;;;;;;;;;;4.70;71.80;;;;;;6215089;23;20013;-85
2021/04/28 04:00:21;;;;;;;11.75;4.35;;;4.60;72.10;;;;;;6167684;23;19908;-85
2021/04/28 04:02:57;;;;;;;8.65;3.60;;;4.50;72.40;;;;;;6145788;23;20034;-84
2021/04/28 04:09:07;;;;;;;7.88;3.92;;;4.60;73.20;;;;;;6169016;23;20015;-85
2021/04/28 04:11:48;;;;;;;12.70;4.72;;;4.60;72.60;;;;;;6107838;23;20706;-83
2021/04/28 04:17:32;;;;;;;9.60;4.15;;;4.70;73.20;;;;;;6165259;23;20008;-83
2021/04/28 04:29:31;;;;;;;13.55;4.30;;;4.90;72.70;;;;;;6188316;23;20041;-84
2021/04/28 04:32:27;;;;;;;12.32;6.25;;;4.90;72.50;;;;;;6136373;23;20024;-84
2021/04/28 04:35:34;;;;;;;15.68;5.10;;;4.90;72.60;;;;;;6074256;23;19998;-85
2021/04/28 04:38:40;;;;;;;13.25;4.50;;;4.90;72.80;;;;;;6212533;23;20008;-84
2021/04/28 04:41:42;;;;;;;16.00;5.18;;;5.00;73.00;;;;;;6169588;23;20005;-84
2021/04/28 04:44:42;;;;;;;11.10;4.70;;;5.10;73.10;;;;;;6191881;23;20028;-84
2021/04/28 04:53:03;;;;;;;9.32;4.93;;;5.20;72.30;;;;;;6199741;23;20020;-84
2021/04/28 04:58:28;;;;;;;9.52;4.20;;;5.30;71.90;;;;;;6140595;23;20036;-84
2021/04/28 05:01:10;;;;;;;8.20;4.80;;;5.40;71.60;;;;;;6166314;23;20020;-84
2021/04/28 05:18:30;;;;;;;9.18;4.85;;;5.80;71.10;;;;;;6115109;23;20028;-83
2021/04/28 05:21:15;;;;;;;11.57;4.75;;;5.90;70.60;;;;;;6153723;23;20052;-82
2021/04/28 05:27:10;;;;;;;11.63;5.53;;;6.20;69.70;;;;;;6199170;23;20037;-83
2021/04/28 05:29:53;;;;;;;10.80;5.20;;;6.40;68.50;;;;;;6166776;23;20008;-84
2021/04/28 05:32:35;;;;;;;11.13;5.47;;;6.50;68.30;;;;;;6172392;23;20028;-82
2021/04/28 05:38:22;;;;;;;14.93;6.50;;;6.80;67.10;;;;;;6111156;23;20090;-82
2021/04/28 05:40:56;;;;;;;9.90;4.35;;;6.80;67.00;;;;;;6108223;23;20002;-85
2021/04/28 05:46:10;;;;;;;10.60;5.13;;;6.80;67.30;;;;;;6186904;23;20261;-83
2021/04/28 06:20:38;;;;;;;12.52;5.15;;;8.90;60.70;;;;;;6200713;23;20032;-84
2021/04/28 06:28:55;;;;;;;9.57;4.80;;;8.80;61.30;;;;;;6167321;23;21110;-84
2021/04/28 06:31:35;;;;;;;9.68;4.85;;;8.80;61.20;;;;;;6166784;23;20038;-85
2021/04/28 06:38:33;;;;;;;;;;;8.90;60.90;;;;;;6191930;23;20020;-85
2021/04/28 06:44:50;;;;;;;15.68;5.20;;;9.10;60.80;;;;;;6212597;23;20040;-87
2021/04/28 06:47:19;;;;;;;12.48;5.35;;;9.20;60.60;;;;;;6197283;23;20000;-89
2021/04/28 06:49:51;;;;;;;13.80;5.80;;;9.30;60.60;;;;;;6196042;23;20012;-82
2021/04/28 06:52:57;;;;;;;15.30;6.25;;;9.50;60.00;;;;;;6194612;23;20016;-81
2021/04/28 06:55:41;;;;;;;12.32;6.38;;;9.80;59.40;;;;;;6196470;23;20008;-82
2021/04/28 06:58:12;;;;;;;16.00;6.07;;;9.90;58.10;;;;;;6191476;23;20237;-84
2021/04/28 07:04:16;;;;;;;13.85;6.38;;;9.90;59.00;;;;;;6207374;23;20043;-83
2021/04/28 07:19:38;;;;;;;10.38;5.70;;;10.40;58.80;;;;;;5953312;23;20055;-86
2021/04/28 07:22:31;;;;;;;15.48;6.28;;;10.60;57.40;;;;;;5975302;23;20032;-87
2021/04/28 07:36:05;;;;;;;13.90;7.50;;;11.10;55.50;;;;;;5924723;23;20016;-86
2021/04/28 07:38:35;;;;;;;16.20;7.43;;;11.20;55.30;;;;;;5991700;23;20056;-88
2021/04/28 07:41:04;;;;;;;16.50;5.90;;;11.30;55.40;;;;;;6037369;23;20050;-87
2021/04/28 07:43:36;;;;;;;13.52;7.10;;;11.30;55.30;;;;;;6064460;23;20033;-86
2021/04/28 07:46:04;;;;;;;13.65;6.68;;;11.40;55.20;;;;;;6095422;23;20021;-86
2021/04/28 07:48:33;;;;;;;14.45;6.57;;;11.50;55.30;;;;;;6060276;23;20010;-88
2021/04/28 07:51:06;;;;;;;15.25;7.10;;;11.50;55.00;;;;;;6082522;23;20084;-87
2021/04/28 07:58:16;;;;;;;20.38;7.45;;;11.80;55.20;;;;;;6031132;23;20015;-88
2021/04/28 08:01:07;;;;;;;24.73;7.85;;;12.00;54.90;;;;;;6187329;22;20021;-83
2021/04/28 08:03:36;;;;;;;16.58;7.10;;;12.00;54.90;;;;;;6242077;23;20019;-88
2021/04/28 08:06:09;;;;;;;12.27;6.97;;;12.20;54.90;;;;;;6241610;23;20012;-87
2021/04/28 08:08:39;;;;;;;17.83;7.72;;;12.20;54.50;;;;;;6188786;23;20008;-88
2021/04/28 08:11:09;;;;;;;18.35;8.48;;;12.30;54.50;;;;;;6193242;23;20016;-86
2021/04/28 08:13:39;;;;;;;21.95;8.07;;;12.30;54.60;;;;;;6166533;23;20017;-86
2021/04/28 08:16:32;;;;;;;20.00;8.40;;;12.50;54.90;;;;;;6188870;23;20019;-87
2021/04/28 08:19:04;;;;;;;17.33;7.78;;;12.50;54.20;;;;;;6207546;23;20068;-87
2021/04/28 08:21:39;;;;;;;15.43;7.80;;;12.50;54.70;;;;;;6210236;23;20023;-82
2021/04/28 08:24:08;;;;;;;16.75;7.88;;;12.50;55.10;;;;;;6209002;23;20233;-81
2021/04/28 08:26:38;;;;;;;16.08;8.18;;;12.50;55.00;;;;;;6182198;23;20027;-84
2021/04/28 08:29:06;;;;;;;22.95;11.18;;;12.50;54.90;;;;;;6201875;23;20213;-86
2021/04/28 08:31:33;;;;;;;19.13;8.48;;;12.70;55.10;;;;;;6178860;23;20017;-85
2021/04/28 08:34:01;;;;;;;17.17;8.50;;;12.80;54.90;;;;;;6177876;23;20040;-84
2021/04/28 08:36:33;;;;;;;17.42;7.70;;;12.90;54.70;;;;;;6199632;23;20072;-88
2021/04/28 08:39:01;;;;;;;16.63;7.35;;;13.00;54.40;;;;;;6200107;23;20447;-87
2021/04/28 08:41:29;;;;;;;;;;;13.10;54.40;;;;;;6222365;23;20040;-85
2021/04/28 08:43:57;;;;;;;21.45;8.77;;;13.20;54.40;;;;;;6173280;23;20154;-81
2021/04/28 08:46:27;;;;;;;13.70;7.28;;;13.30;54.30;;;;;;6199130;23;20040;-84
2021/04/28 08:52:11;;;;;;;15.18;7.40;;;13.50;53.80;;;;;;6107435;23;20042;-87
2021/04/28 08:58:47;;;;;;;16.02;7.78;;;13.80;53.40;;;;;;6085354;23;20365;-88
2021/04/28 09:01:27;;;;;;;17.35;7.13;;;13.90;53.40;;;;;;6083892;23;20050;-85
2021/04/28 09:04:42;;;;;;;14.38;7.30;;;14.00;53.60;;;;;;6064146;23;20045;-87
2021/04/28 09:07:50;;;;;;;18.40;8.05;;;14.20;52.80;;;;;;6132713;23;20213;-87
2021/04/28 09:10:25;;;;;;;13.10;8.05;;;14.20;52.50;;;;;;6083810;23;20046;-85
2021/04/28 09:12:56;;;;;;;17.80;8.38;;;14.30;52.60;;;;;;6076998;23;20054;-84
2021/04/28 09:16:02;;;;;;;19.95;8.35;;;14.30;52.20;;;;;;6108576;23;20057;-84
2021/04/28 09:18:39;;;;;;;18.60;9.00;;;14.50;52.10;;;;;;6080533;23;20049;-86
2021/04/28 09:21:57;;;;;;;19.58;9.38;;;14.60;52.50;;;;;;6133498;23;20085;-86
2021/04/28 09:25:02;;;;;;;18.48;9.20;;;14.70;52.00;;;;;;6075066;23;20065;-86
2021/04/28 09:28:29;;;;;;;19.52;8.88;;;14.70;51.80;;;;;;6096487;23;20042;-85
2021/04/28 09:31:16;;;;;;;17.13;8.65;;;14.90;51.50;;;;;;6176749;23;20045;-88
2021/04/28 09:33:49;;;;;;;16.42;9.05;;;14.80;51.50;;;;;;6176738;23;20352;-86
2021/04/28 09:36:25;;;;;;;13.40;8.63;;;14.90;51.90;;;;;;6203554;23;20012;-85
2021/04/28 09:38:57;;;;;;;19.40;9.65;;;15.00;51.50;;;;;;6198737;23;20071;-88
2021/04/28 09:41:40;;;;;;;17.25;9.02;;;14.90;51.10;;;;;;6225604;23;20056;-87
2021/04/28 09:44:32;;;;;;;16.65;8.93;;;15.00;51.10;;;;;;6197544;23;20058;-87
2021/04/28 09:47:09;;;;;;;17.38;8.82;;;15.10;51.20;;;;;;6176122;23;20040;-86
2021/04/28 09:50:02;;;;;;;19.40;9.43;;;15.30;51.20;;;;;;6176121;23;20012;-85
2021/04/28 09:52:43;;;;;;;17.50;9.80;;;15.50;50.60;;;;;;6178110;23;20069;-85
2021/04/28 09:55:12;;;;;;;15.45;8.55;;;15.70;50.30;;;;;;6174554;23;20044;-84
2021/04/28 09:57:42;;;;;;;18.17;9.48;;;16.20;49.40;;;;;;6174357;23;20352;-85
2021/04/28 10:00:21;;;;;;;18.70;9.85;;;16.80;48.50;;;;;;6195624;23;20052;-88
2021/04/28 10:02:59;;;;;;;15.80;8.40;;;17.30;47.30;;;;;;6172739;23;20625;-89
2021/04/28 10:05:28;;;;;;;15.15;9.13;;;17.60;46.20;;;;;;6198346;23;20048;-85
2021/04/28 10:08:10;;;;;;;19.55;9.70;;;18.30;45.30;;;;;;6200769;23;20051;-85
2021/04/28 10:10:45;;;;;;;18.02;9.15;;;19.20;44.40;;;;;;6201458;23;20028;-84
2021/04/28 10:13:15;;;;;;;15.55;8.38;;;20.10;42.30;;;;;;6199370;23;20068;-84
2021/04/28 10:15:46;;;;;;;14.88;9.32;;;20.80;41.40;;;;;;6199529;23;20044;-83
2021/04/28 10:18:15;;;;;;;17.67;8.90;;;21.30;40.60;;;;;;6175203;23;20044;-81
2021/04/28 10:20:44;;;;;;;14.63;7.88;;;21.80;39.00;;;;;;6226323;23;20245;-82
2021/04/28 10:23:14;;;;;;;14.88;8.18;;;22.40;38.50;;;;;;6200269;23;20054;-81
2021/04/28 10:25:47;;;;;;;13.55;8.60;;;23.00;37.00;;;;;;6201026;23;20048;-81
2021/04/28 10:28:15;;;;;;;17.80;8.63;;;23.60;36.20;;;;;;6202823;23;20396;-81
2021/04/28 10:30:49;;;;;;;15.27;8.50;;;24.00;35.60;;;;;;6199890;23;20028;-83
2021/04/28 10:33:20;;;;;;;16.48;9.02;;;24.50;34.60;;;;;;6174848;23;20265;-80
2021/04/28 10:35:48;;;;;;;16.08;7.80;;;24.90;34.20;;;;;;6224404;23;20040;-82
2021/04/28 10:38:21;;;;;;;16.42;7.70;;;25.40;33.20;;;;;;6150429;23;20036;-82
2021/04/28 10:40:50;;;;;;;17.10;8.18;;;25.70;32.70;;;;;;6174853;23;20044;-82
2021/04/28 10:43:34;;;;;;;;;;;26.00;32.30;;;;;;6178136;23;20040;-82
2021/04/28 10:46:17;;;;;;;15.52;7.60;;;26.30;31.60;;;;;;6200363;23;19987;-80
2021/04/28 10:48:44;;;;;;;14.15;7.38;;;26.60;31.00;;;;;;6175508;23;20476;-80
2021/04/28 10:51:34;;;;;;;12.82;7.28;;;26.40;30.70;;;;;;6200763;23;20298;-80
2021/04/28 10:54:23;;;;;;;10.52;6.70;;;26.70;31.10;;;;;;6175694;23;20369;-81
2021/04/28 10:56:58;;;;;;;10.77;6.93;;;27.00;30.80;;;;;;6224891;23;20076;-82
2021/04/28 10:59:41;;;;;;;17.88;7.30;;;27.70;30.20;;;;;;6227339;23;20019;-81
2021/04/28 11:02:11;;;;;;;14.15;7.70;;;28.30;29.50;;;;;;6173197;23;20105;-83
2021/04/28 11:04:44;;;;;;;9.88;6.00;;;28.60;29.50;;;;;;6182937;23;20013;-82
2021/04/28 11:07:14;;;;;;;11.25;6.82;;;29.30;29.30;;;;;;6184196;23;20012;-82
2021/04/28 11:09:45;;;;;;;9.20;6.22;;;29.80;28.90;;;;;;6209446;23;20012;-82
2021/04/28 11:12:16;;;;;;;10.43;6.22;;;29.70;28.60;;;;;;6211621;23;20013;-83
2021/04/28 11:14:50;;;;;;;9.05;6.57;;;30.30;28.10;;;;;;6189586;23;20008;-83
2021/04/28 11:17:29;;;;;;;10.80;6.68;;;31.10;27.10;;;;;;6217097;23;20020;-83
2021/04/28 11:20:22;;;;;;;8.40;5.72;;;30.70;27.10;;;;;;6185056;23;20009;-82
2021/04/28 11:22:51;;;;;;;16.25;10.57;;;30.40;27.60;;;;;;6232777;23;20016;-84
2021/04/28 11:25:20;;;;;;;8.18;6.50;;;31.00;27.60;;;;;;6187205;23;20012;-83
2021/04/28 11:28:00;;;;;;;9.15;6.68;;;31.60;26.90;;;;;;6203487;23;20016;-83
2021/04/28 11:30:44;;;;;;;12.93;7.60;;;31.80;26.40;;;;;;6186806;23;20009;-84
2021/04/28 11:33:37;;;;;;;11.98;7.22;;;30.80;26.70;;;;;;6185721;23;20064;-84
2021/04/28 11:36:12;;;;;;;14.38;7.85;;;30.50;27.00;;;;;;6178827;23;20012;-84
2021/04/28 11:38:48;;;;;;;15.65;7.03;;;30.30;26.70;;;;;;6183624;23;20089;-84
2021/04/28 11:41:19;;;;;;;;;;;30.60;26.90;;;;;;6181560;23;20044;-84
2021/04/28 11:43:49;;;;;;;9.85;6.75;;;31.10;26.90;;;;;;6199690;23;19968;-85
2021/04/28 11:46:19;;;;;;;13.10;7.25;;;31.00;27.10;;;;;;6175459;23;20041;-85
2021/04/28 11:48:48;;;;;;;16.13;8.82;;;31.50;26.70;;;;;;6225150;23;20048;-83
2021/04/28 11:51:18;;;;;;;14.35;7.28;;;32.20;26.60;;;;;;6176414;23;20049;-84
2021/04/28 11:53:48;;;;;;;15.48;7.75;;;32.10;26.60;;;;;;6202690;23;20052;-84
2021/04/28 11:56:33;;;;;;;14.52;7.40;;;33.10;26.20;;;;;;6204263;23;20023;-84
2021/04/28 11:59:01;;;;;;;11.70;7.05;;;33.20;25.80;;;;;;6176812;23;20040;-83
2021/04/28 12:01:30;;;;;;;14.10;8.15;;;33.20;25.70;;;;;;6202786;23;20261;-85
2021/04/28 12:04:05;;;;;;;9.65;6.80;;;33.10;25.80;;;;;;6176767;23;20051;-83
2021/04/28 12:06:42;;;;;;;11.00;8.18;;;33.80;25.80;;;;;;6175889;23;20020;-86
2021/04/28 12:09:30;;;;;;;12.40;8.35;;;34.40;25.50;;;;;;6180530;23;20225;-83
2021/04/28 12:12:14;;;;;;;9.93;7.75;;;34.80;25.20;;;;;;6172719;23;20050;-85
2021/04/28 12:14:45;;;;;;;13.52;8.55;;;34.30;25.00;;;;;;6179430;23;20052;-83
2021/04/28 12:17:22;;;;;;;11.35;7.60;;;33.20;24.70;;;;;;6205775;23;20008;-83
2021/04/28 12:19:55;;;;;;;13.07;7.97;;;32.50;25.80;;;;;;6177210;23;20044;-83
2021/04/28 12:22:58;;;;;;;10.68;7.65;;;32.70;26.10;;;;;;6175550;23;20089;-84
2021/04/28 12:25:27;;;;;;;12.82;9.00;;;33.90;25.40;;;;;;6198613;23;20044;-84
2021/04/28 12:27:55;;;;;;;13.55;8.90;;;34.30;25.40;;;;;;6232034;23;20386;-84
2021/04/28 12:30:24;;;;;;;12.98;9.48;;;33.30;25.20;;;;;;6155697;23;20008;-83
2021/04/28 12:32:54;;;;;;;14.00;8.77;;;33.20;25.50;;;;;;6178934;23;20016;-83
2021/04/28 12:35:24;;;;;;;12.45;8.02;;;33.70;25.50;;;;;;6177953;23;20241;-83
2021/04/28 12:38:00;;;;;;;13.95;7.63;;;34.00;25.00;;;;;;6175175;23;20105;-84
2021/04/28 12:40:35;;;;;;;;;;;34.30;24.40;;;;;;6174576;23;20040;-84
2021/04/28 12:43:03;;;;;;;11.98;7.90;;;34.20;24.50;;;;;;6173778;23;19951;-84
2021/04/28 12:45:33;;;;;;;10.18;7.07;;;34.90;24.40;;;;;;6173904;23;20040;-82
2021/04/28 12:48:12;;;;;;;13.02;8.40;;;35.30;24.10;;;;;;6174380;23;20424;-83
2021/04/28 12:50:42;;;;;;;13.63;7.80;;;35.90;24.00;;;;;;6174907;23;20340;-82
2021/04/28 12:53:13;;;;;;;11.70;8.32;;;36.50;24.10;;;;;;6186493;23;20023;-83
2021/04/28 12:56:00;;;;;;;10.68;7.80;;;36.30;23.20;;;;;;6190998;23;20009;-84
2021/04/28 12:58:44;;;;;;;9.55;7.15;;;36.00;23.50;;;;;;6217114;23;19996;-84
2021/04/28 13:01:16;;;;;;;12.90;8.05;;;36.50;23.70;;;;;;6176500;23;20348;-84
2021/04/28 13:03:56;;;;;;;10.48;7.93;;;36.50;23.30;;;;;;6178374;23;20351;-84
2021/04/28 13:06:27;;;;;;;9.68;8.07;;;36.90;23.60;;;;;;6176172;23;20245;-84
2021/04/28 13:08:55;;;;;;;11.40;7.97;;;37.20;23.40;;;;;;6175553;23;20119;-85
2021/04/28 13:11:23;;;;;;;;;;;37.40;23.40;;;;;;6205097;23;20020;-86
2021/04/28 13:13:59;;;;;;;12.77;7.85;;;37.30;22.90;;;;;;6208286;23;19927;-85
2021/04/28 13:16:30;;;;;;;9.95;7.65;;;37.20;22.80;;;;;;6174740;23;20360;-86
2021/04/28 13:19:07;;;;;;;11.00;7.45;;;36.90;22.60;;;;;;6176449;23;20048;-85
2021/04/28 13:21:39;;;;;;;15.90;8.93;;;36.50;22.80;;;;;;6176614;23;20052;-85
2021/04/28 13:24:14;;;;;;;13.38;9.02;;;36.60;23.60;;;;;;6205276;23;20012;-86
2021/04/28 13:26:44;;;;;;;13.40;9.02;;;36.30;23.80;;;;;;6202578;23;20080;-86
2021/04/28 13:29:15;;;;;;;12.25;9.65;;;36.40;23.70;;;;;;6178699;23;20012;-86
2021/04/28 13:31:45;;;;;;;15.55;8.63;;;36.20;23.70;;;;;;6182166;23;20008;-86
2021/04/28 13:34:28;;;;;;;13.45;8.05;;;36.20;23.70;;;;;;6229129;23;20008;-84
2021/04/28 13:36:59;;;;;;;11.07;7.82;;;36.80;23.60;;;;;;6207139;23;20252;-84
2021/04/28 13:39:37;;;;;;;13.15;7.10;;;37.30;23.00;;;;;;6160106;23;20019;-84
2021/04/28 13:42:06;;;;;;;13.10;7.60;;;38.00;22.70;;;;;;6182679;23;20020;-84
2021/04/28 13:44:35;;;;;;;9.13;6.28;;;38.50;22.10;;;;;;6178016;23;20332;-84
2021/04/28 13:47:04;;;;;;;8.75;6.75;;;38.50;21.80;;;;;;6178764;23;20019;-85
2021/04/28 13:49:32;;;;;;;14.70;8.10;;;38.30;21.70;;;;;;6177639;23;20016;-84
2021/04/28 13:52:01;;;;;;;;;;;37.30;21.80;;;;;;6229955;23;20052;-84
2021/04/28 13:54:30;;;;;;;10.95;6.68;;;34.90;22.40;;;;;;6200005;23;20174;-83
2021/04/28 13:57:00;;;;;;;10.50;6.25;;;34.50;22.50;;;;;;6175288;23;20013;-84
2021/04/28 13:59:30;;;;;;;12.75;7.55;;;34.80;22.60;;;;;;6178419;23;20045;-84
2021/04/28 14:01:59;;;;;;;13.70;8.73;;;35.40;22.80;;;;;;6177262;23;20070;-84
2021/04/28 14:04:27;;;;;;;12.25;8.18;;;35.30;22.80;;;;;;6202284;23;20232;-84
2021/04/28 14:06:56;;;;;;;13.27;8.10;;;35.10;22.90;;;;;;6177248;23;20290;-85
2021/04/28 14:09:26;;;;;;;10.95;7.90;;;35.20;23.00;;;;;;6200015;23;20048;-84
2021/04/28 14:11:56;;;;;;;14.15;8.10;;;35.40;23.20;;;;;;6174457;23;20044;-85
2021/04/28 14:14:26;;;;;;;11.43;8.15;;;36.10;22.90;;;;;;6175306;23;20252;-84
2021/04/28 14:16:54;;;;;;;12.35;9.00;;;36.10;22.80;;;;;;6174201;23;20100;-85
2021/04/28 14:19:25;;;;;;;14.65;8.82;;;35.90;23.10;;;;;;6198668;23;20052;-87
2021/04/28 14:21:58;;;;;;;12.88;8.35;;;35.90;23.00;;;;;;6203164;23;20044;-84
2021/04/28 14:24:27;;;;;;;11.48;8.15;;;35.80;22.90;;;;;;6189053;23;20016;-84
2021/04/28 14:26:57;;;;;;;11.73;8.70;;;35.50;22.70;;;;;;6188104;23;20016;-85
2021/04/28 14:29:28;;;;;;;14.80;9.30;;;35.40;23.00;;;;;;6190902;23;20012;-83
2021/04/28 14:31:56;;;;;;;14.50;8.38;;;35.40;23.10;;;;;;6192762;23;20027;-84
2021/04/28 14:34:24;;;;;;;;;;;35.00;23.10;;;;;;6186565;23;20012;-84
2021/04/28 14:36:52;;;;;;;12.90;8.05;;;34.60;22.90;;;;;;6184027;23;19924;-85
2021/04/28 14:39:21;;;;;;;15.50;8.65;;;34.60;22.90;;;;;;6184729;23;20015;-85
2021/04/28 14:41:49;;;;;;;12.80;8.57;;;34.70;22.80;;;;;;6184230;23;20008;-84
2021/04/28 14:44:20;;;;;;;12.98;7.60;;;35.10;22.80;;;;;;6209546;23;20019;-85
2021/04/28 14:46:51;;;;;;;9.82;6.85;;;35.60;22.50;;;;;;6184035;23;20011;-84
2021/04/28 14:49:19;;;;;;;12.75;8.05;;;36.00;22.50;;;;;;6207363;23;20034;-86
2021/04/28 14:51:51;;;;;;;13.50;8.52;;;36.30;22.70;;;;;;6181528;23;20009;-85
2021/04/28 14:54:20;;;;;;;14.68;9.88;;;36.10;22.80;;;;;;6231029;23;20087;-85
2021/04/28 14:56:49;;;;;;;13.75;9.10;;;36.50;22.70;;;;;;6181629;23;20005;-86
2021/04/28 14:59:17;;;;;;;13.00;8.35;;;36.40;22.80;;;;;;6159441;23;20084;-86
2021/04/28 15:01:44;;;;;;;12.93;8.32;;;36.50;22.90;;;;;;6231626;23;20027;-86
2021/04/28 15:04:11;;;;;;;11.00;8.63;;;36.80;22.80;;;;;;6181905;23;20024;-83
2021/04/28 15:06:41;;;;;;;14.93;8.30;;;36.90;22.60;;;;;;6207606;23;20040;-86
2021/04/28 15:09:09;;;;;;;14.68;8.95;;;37.30;22.60;;;;;;6182500;23;20008;-84
2021/04/28 15:11:40;;;;;;;15.88;8.85;;;37.50;22.40;;;;;;6208245;23;20009;-85
2021/04/28 15:14:12;;;;;;;11.88;8.40;;;37.40;22.40;;;;;;6182689;23;20038;-85
2021/04/28 15:16:39;;;;;;;9.95;7.60;;;36.90;22.30;;;;;;6183168;23;20013;-85
2021/04/28 15:19:07;;;;;;;19.40;8.63;;;36.10;22.50;;;;;;6182731;23;20020;-85
2021/04/28 15:21:39;;;;;;;14.32;8.50;;;35.60;22.80;;;;;;6233254;23;20021;-83
2021/04/28 15:24:13;;;;;;;17.20;8.95;;;35.60;22.80;;;;;;6184117;23;20315;-83
2021/04/28 15:26:42;;;;;;;13.55;8.25;;;35.60;22.90;;;;;;6184594;23;20012;-82
2021/04/28 15:29:12;;;;;;;10.02;7.72;;;35.10;23.10;;;;;;6179638;23;20024;-84
2021/04/28 15:31:43;;;;;;;12.25;8.40;;;35.30;23.00;;;;;;6204349;23;20057;-84
2021/04/28 15:34:11;;;;;;;13.93;8.65;;;35.40;23.00;;;;;;6205606;23;20015;-85
2021/04/28 15:36:42;;;;;;;17.67;8.68;;;35.70;23.00;;;;;;6182015;23;20012;-83
2021/04/28 15:39:11;;;;;;;12.65;7.90;;;35.90;22.80;;;;;;6184142;23;20016;-86
2021/04/28 15:41:40;;;;;;;13.45;8.77;;;35.70;22.70;;;;;;6206298;23;20044;-85
2021/04/28 15:44:13;;;;;;;14.35;8.68;;;35.70;22.70;;;;;;6179436;23;20048;-85
2021/04/28 15:46:41;;;;;;;12.50;8.48;;;36.00;22.70;;;;;;6179126;23;20012;-85
2021/04/28 15:49:11;;;;;;;11.65;8.00;;;36.10;22.70;;;;;;6178929;23;20008;-84
2021/04/28 15:51:40;;;;;;;11.98;7.63;;;35.80;22.70;;;;;;6173516;23;20049;-84
2021/04/28 15:54:08;;;;;;;12.05;8.93;;;35.90;22.90;;;;;;6174980;23;20052;-84
2021/04/28 15:56:39;;;;;;;12.63;8.20;;;35.80;22.90;;;;;;6179942;23;20020;-84
2021/04/28 15:59:06;;;;;;;12.10;8.87;;;35.70;22.90;;;;;;6184185;23;20016;-85
2021/04/28 16:01:35;;;;;;;11.70;8.32;;;35.40;23.00;;;;;;6204372;23;20065;-83
2021/04/28 16:04:04;;;;;;;14.00;7.90;;;35.40;23.20;;;;;;6175617;23;20061;-82
2021/04/28 16:06:33;;;;;;;13.13;9.85;;;35.30;23.20;;;;;;6204977;23;20008;-83
2021/04/28 16:09:00;;;;;;;19.83;11.27;;;35.00;23.00;;;;;;6179956;23;20016;-83
2021/04/28 16:11:27;;;;;;;16.48;9.57;;;34.20;23.40;;;;;;6180832;23;20259;-84
2021/04/28 16:13:56;;;;;;;14.23;9.53;;;34.10;23.60;;;;;;6180450;23;20008;-84
2021/04/28 16:16:24;;;;;;;16.33;8.95;;;33.90;23.80;;;;;;6224405;23;20072;-82
2021/04/28 16:18:52;;;;;;;13.02;8.38;;;34.00;24.00;;;;;;6174775;23;20032;-85
2021/04/28 16:21:20;;;;;;;16.48;9.05;;;34.00;23.80;;;;;;6175749;23;20048;-82
2021/04/28 16:23:48;;;;;;;15.05;8.90;;;33.80;23.70;;;;;;6175360;23;20040;-82
2021/04/28 16:26:16;;;;;;;13.40;9.18;;;33.70;23.80;;;;;;6175933;23;20064;-82
2021/04/28 16:28:51;;;;;;;15.82;9.43;;;33.60;23.80;;;;;;6176353;23;20052;-84
2021/04/28 16:31:28;;;;;;;;;;;;;;;;;;;;;
2021/04/28 16:34:33;;;;;;;15.15;8.27;;;33.20;23.80;;;;;;6169952;23;20060;-83
2021/04/28 16:37:21;;;;;;;17.48;9.18;;;33.10;23.90;;;;;;6176064;23;20045;-83
2021/04/28 16:39:49;;;;;;;11.75;8.32;;;33.20;24.00;;;;;;6198238;23;20044;-83
2021/04/28 16:42:20;;;;;;;14.88;8.20;;;33.30;23.90;;;;;;6175314;23;20048;-83
2021/04/28 16:44:52;;;;;;;13.80;8.73;;;33.00;23.90;;;;;;6198480;23;20056;-84
2021/04/28 16:47:21;;;;;;;12.90;8.82;;;32.80;24.20;;;;;;6196621;23;20048;-85
2021/04/28 16:49:48;;;;;;;13.70;9.40;;;32.20;24.50;;;;;;6173920;23;20044;-84
2021/04/28 16:52:34;;;;;;;14.93;9.50;;;31.80;24.70;;;;;;6201350;23;20040;-84
2021/04/28 16:55:03;;;;;;;16.98;8.68;;;31.50;24.90;;;;;;6184286;23;20020;-84
2021/04/28 16:57:34;;;;;;;13.10;9.20;;;31.40;25.00;;;;;;6210105;23;20012;-84
2021/04/28 17:00:05;;;;;;;14.18;8.73;;;31.30;25.00;;;;;;6177706;23;20016;-84
2021/04/28 17:03:14;;;;;;;20.88;9.77;;;31.20;25.00;;;;;;6205320;23;20033;-84
2021/04/28 17:05:46;;;;;;;15.70;9.35;;;31.00;25.20;;;;;;6215215;23;20005;-83
2021/04/28 17:08:15;;;;;;;14.45;9.13;;;30.80;25.30;;;;;;6214226;23;20005;-83
2021/04/28 17:10:44;;;;;;;14.50;9.05;;;30.50;25.60;;;;;;6190677;23;20008;-84
2021/04/28 17:13:13;;;;;;;14.45;8.20;;;30.20;25.90;;;;;;6190519;23;20009;-85
2021/04/28 17:15:45;;;;;;;16.00;9.07;;;29.70;26.10;;;;;;6189742;23;20012;-83
2021/04/28 17:18:15;;;;;;;14.13;8.73;;;29.30;26.30;;;;;;6189685;23;20016;-83
2021/04/28 17:20:46;;;;;;;14.95;9.35;;;28.80;26.60;;;;;;6190031;23;20013;-84
2021/04/28 17:23:39;;;;;;;14.93;9.05;;;28.40;26.90;;;;;;6174103;23;20229;-85
2021/04/28 17:27:09;;;;;;;12.77;8.30;;;28.20;27.20;;;;;;6202527;23;20040;-85
2021/04/28 17:29:37;;;;;;;14.15;9.10;;;28.00;27.30;;;;;;6176962;23;20037;-84
2021/04/28 17:32:05;;;;;;;19.98;10.13;;;27.10;27.90;;;;;;6175405;23;20103;-82
2021/04/28 17:34:33;;;;;;;21.35;11.35;;;26.00;28.70;;;;;;6198876;23;20044;-84
2021/04/28 17:37:03;;;;;;;20.70;13.15;;;25.10;29.40;;;;;;6174395;23;20036;-83
2021/04/28 17:39:42;;;;;;;17.85;12.20;;;24.20;30.20;;;;;;6173899;23;20036;-83
2021/04/28 17:42:15;;;;;;;19.13;11.43;;;23.40;31.30;;;;;;6198096;23;20260;-84
2021/04/28 17:44:43;;;;;;;25.92;12.85;;;22.70;32.40;;;;;;6198344;23;20044;-83
2021/04/28 17:47:20;;;;;;;16.00;9.93;;;22.00;33.20;;;;;;6173377;23;20044;-85
2021/04/28 17:49:51;;;;;;;15.18;9.75;;;21.50;34.00;;;;;;6174546;23;20348;-84
2021/04/28 17:52:19;;;;;;;19.20;9.20;;;21.10;34.80;;;;;;6174125;23;20042;-84
2021/04/28 17:54:53;;;;;;;18.10;9.52;;;20.80;35.50;;;;;;6173591;23;20040;-84
2021/04/28 17:57:21;;;;;;;15.20;9.43;;;20.50;36.30;;;;;;6173773;23;20263;-83
2021/04/28 17:59:49;;;;;;;17.92;9.73;;;20.10;36.80;;;;;;6172601;23;20499;-83
2021/04/28 18:05:37;;;;;;;16.83;9.63;;;19.60;37.90;;;;;;6183123;23;20323;-84
2021/04/28 18:08:09;;;;;;;17.85;10.00;;;19.30;38.60;;;;;;6168675;23;20048;-84
2021/04/28 18:10:40;;;;;;;20.30;10.35;;;19.10;39.10;;;;;;6168895;23;20269;-84
2021/04/28 18:13:20;;;;;;;21.95;9.95;;;18.90;39.60;;;;;;6169182;23;20049;-85
2021/04/28 18:15:50;;;;;;;20.17;9.85;;;18.80;40.10;;;;;;6187449;23;20049;-83
2021/04/28 18:18:19;;;;;;;18.45;9.93;;;18.60;40.50;;;;;;6195048;23;20351;-85
2021/04/28 18:20:48;;;;;;;16.67;9.65;;;18.50;41.00;;;;;;6193211;23;20049;-85
2021/04/28 18:23:17;;;;;;;;;;;18.20;41.20;;;;;;6193656;23;20044;-86
2021/04/28 18:25:56;;;;;;;18.98;9.57;;;18.10;41.70;;;;;;6169313;23;19952;-85
2021/04/28 18:28:25;;;;;;;20.75;10.20;;;18.00;42.00;;;;;;6189933;23;20364;-85
2021/04/28 18:30:59;;;;;;;18.75;10.90;;;17.90;42.30;;;;;;6193679;23;20576;-85
2021/04/28 18:33:29;;;;;;;22.33;10.35;;;17.80;42.60;;;;;;6194235;23;20041;-84
2021/04/28 18:35:58;;;;;;;19.42;10.15;;;17.70;42.80;;;;;;6194769;23;20044;-84